sensor_id;sensor_type;location;lat;lon;timestamp;pressure;altitude;pressure_sealevel;temperature;humidity
35307;BME280;21420;52.196;21.416;2023-02-17T00:01:29;100536.15;;;2.11;70.59
35307;BME280;21420;52.196;21.416;2023-02-17T00:03:57;100539.17;;;2.11;70.76
35307;BME280;21420;52.196;21.416;2023-02-17T00:06:27;100535.73;;;2.09;70.62
35307;BME280;21420;52.196;21.416;2023-02-17T00:08:55;100531.95;;;2.08;70.65
35307;BME280;21420;52.196;21.416;2023-02-17T00:11:22;100530.98;;;2.08;70.67
35307;BME280;21420;52.196;21.416;2023-02-17T00:13:50;100533.89;;;2.05;70.60
35307;BME280;21420;52.196;21.416;2023-02-17T00:16:23;100531.74;;;2.04;70.58
35307;BME280;21420;52.196;21.416;2023-02-17T00:18:58;100529.09;;;2.05;70.72
35307;BME280;21420;52.196;21.416;2023-02-17T00:21:29;100531.73;;;2.06;70.69
35307;BME280;21420;52.196;21.416;2023-02-17T00:23:57;100532.54;;;2.07;70.76
35307;BME280;21420;52.196;21.416;2023-02-17T00:26:24;100530.17;;;2.08;70.81
35307;BME280;21420;52.196;21.416;2023-02-17T00:28:51;100529.45;;;2.11;70.91
35307;BME280;21420;52.196;21.416;2023-02-17T00:31:20;100529.54;;;2.13;70.87
35307;BME280;21420;52.196;21.416;2023-02-17T00:33:48;100525.02;;;2.14;70.85
35307;BME280;21420;52.196;21.416;2023-02-17T00:36:17;100519.17;;;2.12;70.88
35307;BME280;21420;52.196;21.416;2023-02-17T00:38:45;100513.15;;;2.09;70.66
35307;BME280;21420;52.196;21.416;2023-02-17T00:41:17;100513.48;;;2.05;70.61
35307;BME280;21420;52.196;21.416;2023-02-17T00:43:45;100514.30;;;2.01;70.61
35307;BME280;21420;52.196;21.416;2023-02-17T00:46:15;100509.23;;;1.99;70.61
35307;BME280;21420;52.196;21.416;2023-02-17T00:48:44;100510.96;;;1.99;70.62
35307;BME280;21420;52.196;21.416;2023-02-17T00:51:11;100511.39;;;1.99;70.77
35307;BME280;21420;52.196;21.416;2023-02-17T00:53:38;100506.26;;;2.01;70.83
35307;BME280;21420;52.196;21.416;2023-02-17T00:56:06;100506.09;;;2.04;70.78
35307;BME280;21420;52.196;21.416;2023-02-17T00:58:34;100503.36;;;2.07;70.91
35307;BME280;21420;52.196;21.416;2023-02-17T01:01:02;100504.05;;;2.12;70.95
35307;BME280;21420;52.196;21.416;2023-02-17T01:03:30;100500.64;;;2.16;71.14
35307;BME280;21420;52.196;21.416;2023-02-17T01:05:57;100493.73;;;2.22;71.00
35307;BME280;21420;52.196;21.416;2023-02-17T01:08:24;100491.73;;;2.27;71.00
35307;BME280;21420;52.196;21.416;2023-02-17T01:10:51;100489.33;;;2.31;71.03
35307;BME280;21420;52.196;21.416;2023-02-17T01:13:19;100482.61;;;2.34;71.14
35307;BME280;21420;52.196;21.416;2023-02-17T01:15:49;100478.20;;;2.38;71.15
35307;BME280;21420;52.196;21.416;2023-02-17T01:18:20;100479.38;;;2.40;71.05
35307;BME280;21420;52.196;21.416;2023-02-17T01:20:49;100478.77;;;2.44;71.17
35307;BME280;21420;52.196;21.416;2023-02-17T01:23:16;100474.81;;;2.45;71.17
35307;BME280;21420;52.196;21.416;2023-02-17T01:25:45;100471.67;;;2.47;71.09
35307;BME280;21420;52.196;21.416;2023-02-17T01:28:15;100469.98;;;2.49;71.15
35307;BME280;21420;52.196;21.416;2023-02-17T01:30:42;100463.59;;;2.51;71.29
35307;BME280;21420;52.196;21.416;2023-02-17T01:33:11;100463.04;;;2.54;71.17
35307;BME280;21420;52.196;21.416;2023-02-17T01:35:38;100466.27;;;2.57;71.26
35307;BME280;21420;52.196;21.416;2023-02-17T01:38:05;100465.32;;;2.58;71.29
35307;BME280;21420;52.196;21.416;2023-02-17T01:40:32;100467.81;;;2.58;71.18
35307;BME280;21420;52.196;21.416;2023-02-17T01:42:59;100465.54;;;2.60;71.20
35307;BME280;21420;52.196;21.416;2023-02-17T01:45:31;100464.34;;;2.60;71.26
35307;BME280;21420;52.196;21.416;2023-02-17T01:48:11;100461.89;;;2.63;71.30
35307;BME280;21420;52.196;21.416;2023-02-17T01:50:45;100458.37;;;2.65;71.24
35307;BME280;21420;52.196;21.416;2023-02-17T01:53:19;100454.94;;;2.68;71.12
35307;BME280;21420;52.196;21.416;2023-02-17T01:55:48;100453.02;;;2.72;71.23
35307;BME280;21420;52.196;21.416;2023-02-17T01:58:18;100455.16;;;2.75;71.23
35307;BME280;21420;52.196;21.416;2023-02-17T02:00:47;100446.48;;;2.78;71.25
35307;BME280;21420;52.196;21.416;2023-02-17T02:03:15;100442.80;;;2.79;71.15
35307;BME280;21420;52.196;21.416;2023-02-17T02:05:42;100437.86;;;2.74;71.01
35307;BME280;21420;52.196;21.416;2023-02-17T02:08:10;100438.23;;;2.69;70.99
35307;BME280;21420;52.196;21.416;2023-02-17T02:10:38;100440.99;;;2.66;70.90
35307;BME280;21420;52.196;21.416;2023-02-17T02:13:06;100437.45;;;2.64;71.07
35307;BME280;21420;52.196;21.416;2023-02-17T02:15:39;100435.73;;;2.61;71.23
35307;BME280;21420;52.196;21.416;2023-02-17T02:33:29;100434.70;;;2.71;71.36
35307;BME280;21420;52.196;21.416;2023-02-17T02:41:09;100423.60;;;2.78;71.27
35307;BME280;21420;52.196;21.416;2023-02-17T02:43:37;100418.64;;;2.78;71.19
35307;BME280;21420;52.196;21.416;2023-02-17T02:46:04;100417.06;;;2.78;71.35
35307;BME280;21420;52.196;21.416;2023-02-17T02:48:32;100420.19;;;2.80;71.42
35307;BME280;21420;52.196;21.416;2023-02-17T03:04:27;100407.83;;;2.89;71.39
35307;BME280;21420;52.196;21.416;2023-02-17T03:07:12;100400.45;;;2.91;71.30
35307;BME280;21420;52.196;21.416;2023-02-17T03:09:51;100403.06;;;2.91;71.33
35307;BME280;21420;52.196;21.416;2023-02-17T03:12:20;100400.23;;;2.91;71.37
35307;BME280;21420;52.196;21.416;2023-02-17T03:14:51;100399.96;;;2.92;71.38
35307;BME280;21420;52.196;21.416;2023-02-17T03:17:25;100407.32;;;2.92;71.33
35307;BME280;21420;52.196;21.416;2023-02-17T03:19:52;100416.45;;;2.92;71.45
35307;BME280;21420;52.196;21.416;2023-02-17T03:22:26;100414.27;;;2.95;71.48
35307;BME280;21420;52.196;21.416;2023-02-17T03:24:54;100417.17;;;2.98;71.51
35307;BME280;21420;52.196;21.416;2023-02-17T03:27:21;100415.48;;;3.00;71.45
35307;BME280;21420;52.196;21.416;2023-02-17T03:29:48;100418.52;;;3.05;71.48
35307;BME280;21420;52.196;21.416;2023-02-17T03:32:16;100418.27;;;3.07;71.50
35307;BME280;21420;52.196;21.416;2023-02-17T03:34:43;100417.94;;;3.09;71.51
35307;BME280;21420;52.196;21.416;2023-02-17T03:37:10;100418.89;;;3.12;71.50
35307;BME280;21420;52.196;21.416;2023-02-17T03:39:37;100418.30;;;3.16;71.58
35307;BME280;21420;52.196;21.416;2023-02-17T03:42:04;100423.80;;;3.18;71.51
35307;BME280;21420;52.196;21.416;2023-02-17T03:44:32;100416.70;;;3.20;71.54
35307;BME280;21420;52.196;21.416;2023-02-17T03:46:59;100417.51;;;3.19;71.48
35307;BME280;21420;52.196;21.416;2023-02-17T03:49:26;100416.31;;;3.20;71.51
35307;BME280;21420;52.196;21.416;2023-02-17T03:51:52;100416.43;;;3.19;71.44
35307;BME280;21420;52.196;21.416;2023-02-17T03:54:19;100413.88;;;3.14;71.29
35307;BME280;21420;52.196;21.416;2023-02-17T03:56:46;100418.39;;;3.07;71.35
35307;BME280;21420;52.196;21.416;2023-02-17T03:59:13;100420.23;;;3.07;71.36
35307;BME280;21420;52.196;21.416;2023-02-17T04:01:40;100420.95;;;3.10;71.42
35307;BME280;21420;52.196;21.416;2023-02-17T04:04:08;100413.76;;;3.10;71.36
35307;BME280;21420;52.196;21.416;2023-02-17T04:06:35;100416.15;;;3.08;71.35
35307;BME280;21420;52.196;21.416;2023-02-17T04:09:03;100418.10;;;3.08;71.34
35307;BME280;21420;52.196;21.416;2023-02-17T04:11:30;100413.55;;;3.08;71.35
35307;BME280;21420;52.196;21.416;2023-02-17T04:13:57;100407.21;;;3.08;71.36
35307;BME280;21420;52.196;21.416;2023-02-17T04:16:23;100403.23;;;3.07;71.43
35307;BME280;21420;52.196;21.416;2023-02-17T04:18:50;100406.75;;;3.08;71.53
35307;BME280;21420;52.196;21.416;2023-02-17T04:21:17;100413.75;;;3.11;71.60
35307;BME280;21420;52.196;21.416;2023-02-17T04:23:45;100419.51;;;3.15;71.69
35307;BME280;21420;52.196;21.416;2023-02-17T04:26:11;100411.36;;;3.17;71.65
35307;BME280;21420;52.196;21.416;2023-02-17T04:28:40;100403.58;;;3.16;71.48
35307;BME280;21420;52.196;21.416;2023-02-17T04:31:08;100395.48;;;3.14;71.58
35307;BME280;21420;52.196;21.416;2023-02-17T04:33:35;100395.58;;;3.16;71.63
35307;BME280;21420;52.196;21.416;2023-02-17T04:36:04;100394.19;;;3.19;71.60
35307;BME280;21420;52.196;21.416;2023-02-17T04:38:32;100392.06;;;3.21;71.67
35307;BME280;21420;52.196;21.416;2023-02-17T04:41:00;100391.08;;;3.22;71.70
35307;BME280;21420;52.196;21.416;2023-02-17T04:43:28;100389.66;;;3.22;71.53
35307;BME280;21420;52.196;21.416;2023-02-17T04:45:56;100391.73;;;3.21;71.53
35307;BME280;21420;52.196;21.416;2023-02-17T04:48:24;100387.56;;;3.21;71.65
35307;BME280;21420;52.196;21.416;2023-02-17T04:50:51;100387.23;;;3.21;71.64
35307;BME280;21420;52.196;21.416;2023-02-17T04:53:18;100386.86;;;3.21;71.56
35307;BME280;21420;52.196;21.416;2023-02-17T04:55:50;100390.30;;;3.23;71.71
35307;BME280;21420;52.196;21.416;2023-02-17T04:58:18;100388.70;;;3.26;71.74
35307;BME280;21420;52.196;21.416;2023-02-17T05:00:47;100388.86;;;3.32;71.89
35307;BME280;21420;52.196;21.416;2023-02-17T05:03:15;100382.14;;;3.38;71.89
35307;BME280;21420;52.196;21.416;2023-02-17T05:05:42;100379.55;;;3.37;71.72
35307;BME280;21420;52.196;21.416;2023-02-17T05:08:09;100382.23;;;3.35;71.78
35307;BME280;21420;52.196;21.416;2023-02-17T05:10:39;100387.39;;;3.38;71.86
35307;BME280;21420;52.196;21.416;2023-02-17T05:13:06;100380.70;;;3.40;71.93
35307;BME280;21420;52.196;21.416;2023-02-17T05:15:33;100372.66;;;3.42;71.83
35307;BME280;21420;52.196;21.416;2023-02-17T05:18:01;100365.50;;;3.40;71.83
35307;BME280;21420;52.196;21.416;2023-02-17T05:20:28;100357.07;;;3.32;71.62
35307;BME280;21420;52.196;21.416;2023-02-17T05:22:55;100354.27;;;3.26;71.55
35307;BME280;21420;52.196;21.416;2023-02-17T05:25:22;100345.58;;;3.20;71.41
35307;BME280;21420;52.196;21.416;2023-02-17T05:27:49;100355.98;;;3.13;71.46
35307;BME280;21420;52.196;21.416;2023-02-17T05:30:16;100367.93;;;3.15;71.80
35307;BME280;21420;52.196;21.416;2023-02-17T05:32:43;100371.44;;;3.22;72.00
35307;BME280;21420;52.196;21.416;2023-02-17T05:35:10;100371.91;;;3.27;71.90
35307;BME280;21420;52.196;21.416;2023-02-17T05:37:37;100367.75;;;3.32;72.08
35307;BME280;21420;52.196;21.416;2023-02-17T05:40:05;100363.76;;;3.35;72.04
35307;BME280;21420;52.196;21.416;2023-02-17T05:42:32;100352.94;;;3.35;72.01
35307;BME280;21420;52.196;21.416;2023-02-17T05:44:59;100345.96;;;3.33;71.86
35307;BME280;21420;52.196;21.416;2023-02-17T05:47:26;100346.43;;;3.29;71.82
35307;BME280;21420;52.196;21.416;2023-02-17T05:49:53;100350.82;;;3.30;71.87
35307;BME280;21420;52.196;21.416;2023-02-17T05:52:20;100353.35;;;3.32;72.00
35307;BME280;21420;52.196;21.416;2023-02-17T05:54:47;100345.17;;;3.32;72.00
35307;BME280;21420;52.196;21.416;2023-02-17T05:57:14;100344.08;;;3.32;71.97
35307;BME280;21420;52.196;21.416;2023-02-17T05:59:41;100348.39;;;3.34;72.04
35307;BME280;21420;52.196;21.416;2023-02-17T06:02:08;100356.58;;;3.39;72.10
35307;BME280;21420;52.196;21.416;2023-02-17T06:04:35;100348.55;;;3.43;72.19
35307;BME280;21420;52.196;21.416;2023-02-17T06:07:02;100339.82;;;3.45;72.12
35307;BME280;21420;52.196;21.416;2023-02-17T06:09:29;100340.44;;;3.43;72.10
35307;BME280;21420;52.196;21.416;2023-02-17T06:11:56;100342.02;;;3.43;72.07
35307;BME280;21420;52.196;21.416;2023-02-17T06:14:23;100342.48;;;3.46;72.14
35307;BME280;21420;52.196;21.416;2023-02-17T06:16:49;100334.05;;;3.48;72.19
35307;BME280;21420;52.196;21.416;2023-02-17T06:19:16;100329.77;;;3.48;72.18
35307;BME280;21420;52.196;21.416;2023-02-17T06:21:43;100331.64;;;3.47;72.10
35307;BME280;21420;52.196;21.416;2023-02-17T06:24:10;100334.85;;;3.48;72.12
35307;BME280;21420;52.196;21.416;2023-02-17T06:26:37;100333.95;;;3.48;72.23
35307;BME280;21420;52.196;21.416;2023-02-17T06:29:05;100334.25;;;3.49;72.17
35307;BME280;21420;52.196;21.416;2023-02-17T06:31:32;100334.53;;;3.49;72.14
35307;BME280;21420;52.196;21.416;2023-02-17T06:33:59;100341.87;;;3.50;72.25
35307;BME280;21420;52.196;21.416;2023-02-17T06:36:26;100337.45;;;3.53;72.23
35307;BME280;21420;52.196;21.416;2023-02-17T06:38:53;100333.44;;;3.53;72.23
35307;BME280;21420;52.196;21.416;2023-02-17T06:41:20;100329.34;;;3.52;72.16
35307;BME280;21420;52.196;21.416;2023-02-17T06:43:47;100328.11;;;3.52;72.15
35307;BME280;21420;52.196;21.416;2023-02-17T06:46:14;100335.14;;;3.53;72.33
35307;BME280;21420;52.196;21.416;2023-02-17T06:48:41;100337.66;;;3.54;72.41
35307;BME280;21420;52.196;21.416;2023-02-17T06:51:08;100338.99;;;3.56;72.23
35307;BME280;21420;52.196;21.416;2023-02-17T06:53:35;100337.84;;;3.57;72.32
35307;BME280;21420;52.196;21.416;2023-02-17T06:56:02;100336.79;;;3.59;72.41
35307;BME280;21420;52.196;21.416;2023-02-17T06:58:30;100332.31;;;3.62;72.40
35307;BME280;21420;52.196;21.416;2023-02-17T07:00:58;100331.32;;;3.63;72.34
35307;BME280;21420;52.196;21.416;2023-02-17T07:03:25;100328.97;;;3.65;72.46
35307;BME280;21420;52.196;21.416;2023-02-17T07:05:56;100330.06;;;3.69;72.45
35307;BME280;21420;52.196;21.416;2023-02-17T07:08:24;100331.32;;;3.71;72.46
35307;BME280;21420;52.196;21.416;2023-02-17T07:10:51;100325.80;;;3.71;72.39
35307;BME280;21420;52.196;21.416;2023-02-17T07:13:18;100317.48;;;3.73;72.47
35307;BME280;21420;52.196;21.416;2023-02-17T07:15:45;100310.16;;;3.78;72.46
35307;BME280;21420;52.196;21.416;2023-02-17T07:18:12;100307.96;;;3.81;72.43
35307;BME280;21420;52.196;21.416;2023-02-17T07:20:38;100310.52;;;3.83;72.43
35307;BME280;21420;52.196;21.416;2023-02-17T07:23:06;100313.89;;;3.86;72.47
35307;BME280;21420;52.196;21.416;2023-02-17T07:25:33;100319.57;;;3.91;72.49
35307;BME280;21420;52.196;21.416;2023-02-17T07:28:00;100310.30;;;3.96;72.61
35307;BME280;21420;52.196;21.416;2023-02-17T07:30:27;100312.17;;;4.01;72.61
35307;BME280;21420;52.196;21.416;2023-02-17T07:32:54;100312.27;;;4.08;72.70
35307;BME280;21420;52.196;21.416;2023-02-17T07:35:21;100308.51;;;4.13;72.72
35307;BME280;21420;52.196;21.416;2023-02-17T07:37:49;100306.00;;;4.22;72.86
35307;BME280;21420;52.196;21.416;2023-02-17T07:40:17;100307.61;;;4.26;72.62
35307;BME280;21420;52.196;21.416;2023-02-17T07:42:44;100307.25;;;4.28;72.53
35307;BME280;21420;52.196;21.416;2023-02-17T07:45:12;100299.83;;;4.32;72.56
35307;BME280;21420;52.196;21.416;2023-02-17T07:47:39;100297.97;;;4.36;72.60
35307;BME280;21420;52.196;21.416;2023-02-17T07:50:07;100292.32;;;4.46;72.66
35307;BME280;21420;52.196;21.416;2023-02-17T07:52:34;100293.26;;;4.62;72.75
35307;BME280;21420;52.196;21.416;2023-02-17T07:55:01;100298.79;;;4.80;72.93
35307;BME280;21420;52.196;21.416;2023-02-17T07:57:29;100297.84;;;4.90;72.83
35307;BME280;21420;52.196;21.416;2023-02-17T07:59:56;100301.98;;;4.90;72.58
35307;BME280;21420;52.196;21.416;2023-02-17T08:02:23;100303.53;;;4.85;72.49
35307;BME280;21420;52.196;21.416;2023-02-17T08:04:51;100301.57;;;4.83;72.49
35307;BME280;21420;52.196;21.416;2023-02-17T08:07:18;100302.45;;;4.83;72.53
35307;BME280;21420;52.196;21.416;2023-02-17T08:09:45;100302.38;;;4.86;72.57
35307;BME280;21420;52.196;21.416;2023-02-17T08:12:33;100304.72;;;4.91;72.69
35307;BME280;21420;52.196;21.416;2023-02-17T08:15:19;100302.20;;;4.96;72.64
35307;BME280;21420;52.196;21.416;2023-02-17T08:17:46;100297.76;;;4.98;72.57
35307;BME280;21420;52.196;21.416;2023-02-17T08:20:16;100293.59;;;4.97;72.59
35307;BME280;21420;52.196;21.416;2023-02-17T08:22:43;100289.46;;;4.97;72.54
35307;BME280;21420;52.196;21.416;2023-02-17T08:25:10;100286.71;;;5.02;72.64
35307;BME280;21420;52.196;21.416;2023-02-17T08:27:37;100288.41;;;5.07;72.58
35307;BME280;21420;52.196;21.416;2023-02-17T08:30:05;100293.28;;;5.13;72.64
35307;BME280;21420;52.196;21.416;2023-02-17T08:32:32;100286.14;;;5.20;72.76
35307;BME280;21420;52.196;21.416;2023-02-17T08:34:59;100284.92;;;5.25;72.65
35307;BME280;21420;52.196;21.416;2023-02-17T08:37:27;100282.91;;;5.25;72.53
35307;BME280;21420;52.196;21.416;2023-02-17T08:39:56;100280.95;;;5.25;72.52
35307;BME280;21420;52.196;21.416;2023-02-17T08:42:26;100278.30;;;5.27;72.52
35307;BME280;21420;52.196;21.416;2023-02-17T08:44:53;100278.40;;;5.31;72.60
35307;BME280;21420;52.196;21.416;2023-02-17T08:47:20;100275.04;;;5.30;72.43
35307;BME280;21420;52.196;21.416;2023-02-17T08:49:47;100274.97;;;5.33;72.56
35307;BME280;21420;52.196;21.416;2023-02-17T08:52:14;100270.61;;;5.39;72.54
35307;BME280;21420;52.196;21.416;2023-02-17T08:54:41;100270.86;;;5.43;72.50
35307;BME280;21420;52.196;21.416;2023-02-17T08:57:08;100270.09;;;5.46;72.58
35307;BME280;21420;52.196;21.416;2023-02-17T08:59:35;100267.23;;;5.48;72.59
35307;BME280;21420;52.196;21.416;2023-02-17T09:02:02;100266.10;;;5.50;72.51
35307;BME280;21420;52.196;21.416;2023-02-17T09:04:29;100261.17;;;5.51;72.49
35307;BME280;21420;52.196;21.416;2023-02-17T09:06:57;100262.01;;;5.53;72.42
35307;BME280;21420;52.196;21.416;2023-02-17T09:09:25;100265.30;;;5.56;72.49
35307;BME280;21420;52.196;21.416;2023-02-17T09:11:55;100265.92;;;5.60;72.51
35307;BME280;21420;52.196;21.416;2023-02-17T09:14:23;100260.73;;;5.65;72.62
35307;BME280;21420;52.196;21.416;2023-02-17T09:16:51;100257.42;;;5.67;72.49
35307;BME280;21420;52.196;21.416;2023-02-17T09:19:19;100255.79;;;5.70;72.57
35307;BME280;21420;52.196;21.416;2023-02-17T09:21:46;100251.99;;;5.71;72.53
35307;BME280;21420;52.196;21.416;2023-02-17T09:24:15;100247.09;;;5.76;72.58
35307;BME280;21420;52.196;21.416;2023-02-17T09:26:42;100248.69;;;5.82;72.52
35307;BME280;21420;52.196;21.416;2023-02-17T09:29:09;100247.41;;;5.84;72.47
35307;BME280;21420;52.196;21.416;2023-02-17T09:31:36;100244.75;;;5.89;72.55
35307;BME280;21420;52.196;21.416;2023-02-17T09:34:04;100241.80;;;5.89;72.46
35307;BME280;21420;52.196;21.416;2023-02-17T09:36:33;100244.33;;;5.88;72.47
35307;BME280;21420;52.196;21.416;2023-02-17T09:39:03;100240.45;;;5.91;72.55
35307;BME280;21420;52.196;21.416;2023-02-17T09:41:38;100235.04;;;5.98;72.58
35307;BME280;21420;52.196;21.416;2023-02-17T09:44:17;100232.77;;;6.07;72.67
35307;BME280;21420;52.196;21.416;2023-02-17T09:47:01;100228.77;;;6.15;72.60
35307;BME280;21420;52.196;21.416;2023-02-17T09:49:36;100226.48;;;6.24;72.64
35307;BME280;21420;52.196;21.416;2023-02-17T09:52:10;100221.20;;;6.33;72.62
35307;BME280;21420;52.196;21.416;2023-02-17T09:54:59;100216.43;;;6.38;72.57
35307;BME280;21420;52.196;21.416;2023-02-17T09:57:36;100214.29;;;6.45;72.55
35307;BME280;21420;52.196;21.416;2023-02-17T10:02:59;100207.15;;;6.44;72.51
35307;BME280;21420;52.196;21.416;2023-02-17T10:05:35;100200.40;;;6.44;72.48
35307;BME280;21420;52.196;21.416;2023-02-17T10:08:10;100201.04;;;6.43;72.40
35307;BME280;21420;52.196;21.416;2023-02-17T10:10:56;100202.87;;;6.44;72.39
35307;BME280;21420;52.196;21.416;2023-02-17T10:13:26;100201.65;;;6.44;72.43
35307;BME280;21420;52.196;21.416;2023-02-17T10:15:59;100198.67;;;6.45;72.39
35307;BME280;21420;52.196;21.416;2023-02-17T10:18:56;100192.32;;;6.49;72.50
35307;BME280;21420;52.196;21.416;2023-02-17T10:21:28;100190.34;;;6.56;72.59
35307;BME280;21420;52.196;21.416;2023-02-17T10:23:56;100186.86;;;6.62;72.52
35307;BME280;21420;52.196;21.416;2023-02-17T10:31:45;100176.88;;;6.67;72.37
35307;BME280;21420;52.196;21.416;2023-02-17T10:37:01;100172.17;;;6.66;72.37
35307;BME280;21420;52.196;21.416;2023-02-17T10:39:48;100172.80;;;6.65;72.41
35307;BME280;21420;52.196;21.416;2023-02-17T10:42:33;100172.63;;;6.61;72.23
35307;BME280;21420;52.196;21.416;2023-02-17T10:45:23;100171.55;;;6.55;72.13
35307;BME280;21420;52.196;21.416;2023-02-17T10:48:00;100166.38;;;6.51;72.21
35307;BME280;21420;52.196;21.416;2023-02-17T10:50:29;100170.02;;;6.51;72.29
35307;BME280;21420;52.196;21.416;2023-02-17T10:52:56;100164.46;;;6.45;72.17
35307;BME280;21420;52.196;21.416;2023-02-17T10:55:30;100160.14;;;6.38;72.12
35307;BME280;21420;52.196;21.416;2023-02-17T10:58:06;100153.95;;;6.36;72.18
35307;BME280;21420;52.196;21.416;2023-02-17T11:00:36;100145.23;;;6.37;72.21
35307;BME280;21420;52.196;21.416;2023-02-17T11:03:03;100143.50;;;6.36;72.25
35307;BME280;21420;52.196;21.416;2023-02-17T11:05:32;100134.89;;;6.33;72.14
35307;BME280;21420;52.196;21.416;2023-02-17T11:08:04;100132.85;;;6.30;72.13
35307;BME280;21420;52.196;21.416;2023-02-17T11:10:39;100119.73;;;6.30;72.27
35307;BME280;21420;52.196;21.416;2023-02-17T11:13:29;100114.42;;;6.36;72.37
35307;BME280;21420;52.196;21.416;2023-02-17T11:15:57;100111.09;;;6.42;72.43
35307;BME280;21420;52.196;21.416;2023-02-17T11:18:38;100107.29;;;6.45;72.42
35307;BME280;21420;52.196;21.416;2023-02-17T11:21:11;100103.98;;;6.47;72.40
35307;BME280;21420;52.196;21.416;2023-02-17T11:23:55;100096.74;;;6.45;72.38
35307;BME280;21420;52.196;21.416;2023-02-17T11:26:26;100084.91;;;6.42;72.31
35307;BME280;21420;52.196;21.416;2023-02-17T11:29:08;100081.34;;;6.44;72.40
35307;BME280;21420;52.196;21.416;2023-02-17T11:31:36;100073.28;;;6.44;72.37
35307;BME280;21420;52.196;21.416;2023-02-17T11:34:11;100067.55;;;6.45;72.32
35307;BME280;21420;52.196;21.416;2023-02-17T11:36:39;100062.42;;;6.45;72.26
35307;BME280;21420;52.196;21.416;2023-02-17T11:39:17;100061.66;;;6.47;72.40
35307;BME280;21420;52.196;21.416;2023-02-17T11:41:45;100051.89;;;6.46;72.26
35307;BME280;21420;52.196;21.416;2023-02-17T11:44:22;100044.59;;;6.44;72.33
35307;BME280;21420;52.196;21.416;2023-02-17T11:52:40;100024.21;;;6.47;72.42
35307;BME280;21420;52.196;21.416;2023-02-17T11:57:44;100013.04;;;6.48;72.50
35307;BME280;21420;52.196;21.416;2023-02-17T12:00:19;100010.54;;;6.48;72.52
35307;BME280;21420;52.196;21.416;2023-02-17T12:03:19;100002.55;;;6.44;72.48
35307;BME280;21420;52.196;21.416;2023-02-17T12:06:23;99999.28;;;6.44;72.53
35307;BME280;21420;52.196;21.416;2023-02-17T12:09:28;99998.29;;;6.43;72.61
35307;BME280;21420;52.196;21.416;2023-02-17T12:17:58;99976.73;;;6.39;72.55
35307;BME280;21420;52.196;21.416;2023-02-17T12:21:04;99971.98;;;6.37;72.57
35307;BME280;21420;52.196;21.416;2023-02-17T12:29:04;99954.91;;;6.35;72.62
35307;BME280;21420;52.196;21.416;2023-02-17T12:34:43;99945.45;;;6.33;72.70
35307;BME280;21420;52.196;21.416;2023-02-17T12:37:21;99937.84;;;6.31;72.83
35307;BME280;21420;52.196;21.416;2023-02-17T12:45:58;99906.44;;;6.35;72.79
35307;BME280;21420;52.196;21.416;2023-02-17T12:48:39;99901.79;;;6.36;72.84
35307;BME280;21420;52.196;21.416;2023-02-17T12:51:11;99900.67;;;6.37;72.97
35307;BME280;21420;52.196;21.416;2023-02-17T12:53:53;99894.86;;;6.36;72.94
35307;BME280;21420;52.196;21.416;2023-02-17T12:56:38;99891.86;;;6.37;72.97
35307;BME280;21420;52.196;21.416;2023-02-17T12:59:44;99885.91;;;6.36;72.92
35307;BME280;21420;52.196;21.416;2023-02-17T13:02:21;99880.63;;;6.36;72.97
35307;BME280;21420;52.196;21.416;2023-02-17T13:05:00;99873.81;;;6.36;73.02
35307;BME280;21420;52.196;21.416;2023-02-17T13:07:50;99874.65;;;6.39;73.11
35307;BME280;21420;52.196;21.416;2023-02-17T13:13:08;99869.05;;;6.46;73.22
35307;BME280;21420;52.196;21.416;2023-02-17T13:15:42;99866.72;;;6.48;73.19
35307;BME280;21420;52.196;21.416;2023-02-17T13:18:26;99859.73;;;6.50;73.20
35307;BME280;21420;52.196;21.416;2023-02-17T13:23:45;99854.71;;;6.54;73.26
35307;BME280;21420;52.196;21.416;2023-02-17T13:26:32;99855.39;;;6.54;73.25
35307;BME280;21420;52.196;21.416;2023-02-17T13:31:55;99845.08;;;6.54;73.30
35307;BME280;21420;52.196;21.416;2023-02-17T13:34:41;99835.52;;;6.54;73.35
35307;BME280;21420;52.196;21.416;2023-02-17T13:37:23;99824.23;;;6.53;73.29
35307;BME280;21420;52.196;21.416;2023-02-17T13:39:50;99818.71;;;6.54;73.32
35307;BME280;21420;52.196;21.416;2023-02-17T13:45:00;99824.73;;;6.56;73.44
35307;BME280;21420;52.196;21.416;2023-02-17T13:47:33;99829.79;;;6.58;73.38
35307;BME280;21420;52.196;21.416;2023-02-17T13:50:04;99826.06;;;6.58;73.40
35307;BME280;21420;52.196;21.416;2023-02-17T13:52:32;99821.15;;;6.58;73.33
35307;BME280;21420;52.196;21.416;2023-02-17T13:55:02;99811.43;;;6.58;73.41
35307;BME280;21420;52.196;21.416;2023-02-17T13:57:35;99806.48;;;6.60;73.49
35307;BME280;21420;52.196;21.416;2023-02-17T14:00:21;99803.76;;;6.62;73.51
35307;BME280;21420;52.196;21.416;2023-02-17T14:02:51;99800.99;;;6.63;73.51
35307;BME280;21420;52.196;21.416;2023-02-17T14:11:07;99787.66;;;6.60;73.54
35307;BME280;21420;52.196;21.416;2023-02-17T14:13:40;99784.34;;;6.60;73.59
35307;BME280;21420;52.196;21.416;2023-02-17T14:19:20;99778.17;;;6.58;73.55
35307;BME280;21420;52.196;21.416;2023-02-17T14:24:35;99778.41;;;6.57;73.57
35307;BME280;21420;52.196;21.416;2023-02-17T14:27:08;99770.80;;;6.55;73.61
35307;BME280;21420;52.196;21.416;2023-02-17T14:29:45;99761.63;;;6.53;73.62
35307;BME280;21420;52.196;21.416;2023-02-17T14:32:27;99750.79;;;6.50;73.60
35307;BME280;21420;52.196;21.416;2023-02-17T14:35:25;99745.14;;;6.51;73.72
35307;BME280;21420;52.196;21.416;2023-02-17T14:37:52;99735.89;;;6.49;73.68
35307;BME280;21420;52.196;21.416;2023-02-17T14:40:23;99730.78;;;6.48;73.72
35307;BME280;21420;52.196;21.416;2023-02-17T14:42:51;99721.73;;;6.45;73.66
35307;BME280;21420;52.196;21.416;2023-02-17T14:45:18;99714.92;;;6.44;73.71
35307;BME280;21420;52.196;21.416;2023-02-17T14:47:45;99711.70;;;6.42;73.71